createdAt,value
2018-09-20T00:07:22.866Z,25.15
2018-09-20T00:09:57.220Z,25.16
2018-09-20T00:12:25.552Z,25.22
2018-09-20T00:14:54.321Z,25.18
2018-09-20T00:17:22.588Z,25.07
2018-09-20T00:19:51.439Z,24.97
2018-09-20T00:22:19.974Z,24.80
2018-09-20T00:24:48.436Z,25.02
2018-09-20T00:27:16.570Z,25.08
2018-09-20T00:29:44.998Z,24.96
2018-09-20T00:32:13.263Z,24.87
2018-09-20T00:34:41.407Z,24.89
2018-09-20T00:37:09.629Z,24.93
2018-09-20T00:39:37.801Z,24.78
2018-09-20T00:42:06.024Z,24.80
2018-09-20T00:44:34.697Z,24.59
2018-09-20T00:47:03.349Z,24.61
2018-09-20T00:49:31.844Z,24.55
2018-09-20T00:52:00.117Z,24.48
2018-09-20T00:54:28.623Z,24.65
2018-09-20T00:56:56.840Z,24.57
2018-09-20T00:59:25.038Z,24.53
2018-09-20T01:01:53.327Z,24.41
2018-09-20T01:04:23.081Z,24.33
2018-09-20T01:06:52.079Z,24.32
2018-09-20T01:09:20.383Z,24.38
2018-09-20T01:11:48.911Z,24.39
2018-09-20T01:14:17.248Z,24.32
2018-09-20T01:16:45.364Z,24.33
2018-09-20T01:19:13.516Z,24.37
2018-09-20T01:21:41.695Z,24.24
2018-09-20T01:24:09.816Z,24.23
2018-09-20T01:26:37.954Z,24.04
2018-09-20T01:29:06.187Z,24.14
2018-09-20T01:31:34.536Z,24.07
2018-09-20T01:34:02.754Z,24.10
2018-09-20T01:36:30.899Z,24.11
2018-09-20T01:39:00.043Z,24.08
2018-09-20T01:41:28.233Z,24.06
2018-09-20T01:43:56.435Z,23.95
2018-09-20T01:46:24.630Z,24.04
2018-09-20T01:48:52.912Z,23.98
2018-09-20T01:51:21.468Z,24.00
2018-09-20T01:53:49.598Z,24.01
2018-09-20T01:56:17.761Z,23.95
2018-09-20T01:58:46.692Z,24.00
2018-09-20T02:01:14.846Z,23.85
2018-09-20T02:03:43.744Z,23.82
2018-09-20T02:06:12.735Z,23.66
2018-09-20T02:08:42.960Z,23.43
2018-09-20T02:11:11.719Z,23.59
2018-09-20T02:13:39.881Z,23.34
2018-09-20T02:16:08.734Z,23.59
2018-09-20T02:18:36.908Z,23.56
2018-09-20T02:21:05.232Z,23.67
2018-09-20T02:23:34.327Z,23.64
2018-09-20T02:26:02.463Z,23.60
2018-09-20T02:28:30.631Z,23.39
2018-09-20T02:31:00.930Z,23.47
2018-09-20T02:33:29.350Z,23.54
2018-09-20T02:35:57.723Z,23.63
2018-09-20T02:38:25.970Z,23.41
2018-09-20T02:40:54.164Z,23.34
2018-09-20T02:43:23.667Z,23.39
2018-09-20T02:45:51.833Z,23.24
2018-09-20T02:48:19.984Z,23.21
2018-09-20T02:50:48.167Z,23.30
2018-09-20T02:53:16.384Z,23.36
2018-09-20T02:55:44.640Z,23.35
2018-09-20T02:58:14.552Z,23.38
2018-09-20T03:00:42.723Z,23.31
2018-09-20T03:03:11.811Z,23.31
2018-09-20T03:05:39.987Z,23.24
2018-09-20T03:08:08.168Z,23.05
2018-09-20T03:10:36.336Z,23.16
2018-09-20T03:13:04.544Z,23.04
2018-09-20T03:15:34.384Z,22.55
2018-09-20T03:18:02.948Z,22.48
2018-09-20T03:20:31.139Z,22.30
2018-09-20T03:22:59.872Z,22.24
2018-09-20T03:25:28.070Z,22.35
2018-09-20T03:27:58.511Z,22.12
2018-09-20T03:30:26.653Z,22.13
2018-09-20T03:32:54.845Z,22.19
2018-09-20T03:35:23.186Z,22.14
2018-09-20T03:37:51.606Z,22.08
2018-09-20T03:40:19.828Z,21.76
2018-09-20T03:42:47.995Z,21.81
2018-09-20T03:45:16.147Z,21.89
2018-09-20T03:47:44.417Z,22.04
2018-09-20T03:50:12.643Z,22.17
2018-09-20T03:52:40.845Z,22.08
2018-09-20T03:55:09.339Z,21.94
2018-09-20T03:57:37.604Z,21.95
2018-09-20T04:00:05.863Z,21.68
2018-09-20T04:02:34.299Z,21.65
2018-09-20T04:05:02.505Z,21.41
2018-09-20T04:07:30.677Z,21.29
2018-09-20T04:09:58.902Z,21.54
2018-09-20T04:12:27.175Z,21.21
2018-09-20T04:14:55.366Z,21.47
2018-09-20T04:17:23.640Z,21.54
2018-09-20T04:19:51.803Z,21.39
2018-09-20T04:22:20.058Z,21.35
2018-09-20T04:24:49.270Z,21.11
2018-09-20T04:27:17.615Z,21.31
2018-09-20T04:29:45.879Z,21.12
2018-09-20T04:32:16.020Z,21.14
2018-09-20T04:34:44.803Z,20.98
2018-09-20T04:37:12.983Z,21.04
2018-09-20T04:39:41.282Z,21.24
2018-09-20T04:42:10.287Z,21.12
2018-09-20T04:44:38.786Z,21.14
2018-09-20T04:47:08.344Z,21.34
2018-09-20T04:49:36.845Z,21.25
2018-09-20T04:52:05.236Z,21.21
2018-09-20T04:54:33.338Z,21.17
2018-09-20T04:57:01.526Z,21.16
2018-09-20T04:59:29.594Z,21.10
2018-09-20T05:01:57.689Z,21.20
2018-09-20T05:04:28.150Z,21.21
2018-09-20T05:06:56.311Z,21.16
2018-09-20T05:09:24.573Z,21.30
2018-09-20T05:11:56.838Z,21.17
2018-09-20T05:14:25.017Z,21.27
2018-09-20T05:16:53.208Z,21.45
2018-09-20T05:19:21.372Z,21.52
2018-09-20T05:21:49.538Z,21.49
2018-09-20T05:24:18.042Z,21.43
2018-09-20T05:26:46.252Z,21.38
2018-09-20T05:29:15.218Z,21.31
2018-09-20T05:31:43.433Z,21.29
2018-09-20T05:34:13.112Z,21.08
2018-09-20T05:36:41.297Z,21.27
2018-09-20T05:39:10.415Z,21.32
2018-09-20T05:41:38.749Z,21.25
2018-09-20T05:44:07.941Z,21.31
2018-09-20T05:46:36.317Z,21.18
2018-09-20T05:49:04.972Z,21.05
2018-09-20T05:51:33.211Z,21.13
2018-09-20T05:54:01.458Z,21.22
2018-09-20T05:56:29.705Z,21.35
2018-09-20T05:58:58.039Z,21.43
2018-09-20T06:01:28.157Z,21.28
2018-09-20T06:03:56.495Z,21.42
2018-09-20T06:06:26.328Z,21.62
2018-09-20T06:08:54.572Z,21.61
2018-09-20T06:11:22.878Z,21.34
2018-09-20T06:13:51.376Z,21.39
2018-09-20T06:16:19.857Z,21.17
2018-09-20T06:18:48.989Z,21.34
2018-09-20T06:21:17.383Z,21.14
2018-09-20T06:23:45.485Z,21.17
2018-09-20T06:26:13.625Z,21.08
2018-09-20T06:28:42.349Z,21.21
2018-09-20T06:31:10.434Z,20.92
2018-09-20T06:33:38.655Z,21.07
2018-09-20T06:36:07.271Z,21.35
2018-09-20T06:38:37.019Z,21.48
2018-09-20T06:41:05.367Z,21.24
2018-09-20T06:43:34.096Z,21.15
2018-09-20T06:46:02.244Z,21.48
2018-09-20T06:48:30.382Z,21.45
2018-09-20T06:51:00.179Z,21.78
2018-09-20T06:53:28.285Z,21.68
2018-09-20T06:55:57.706Z,21.58
2018-09-20T06:58:27.789Z,21.81
2018-09-20T07:00:55.940Z,21.66
2018-09-20T07:03:24.957Z,21.56
2018-09-20T07:05:55.647Z,21.30
2018-09-20T07:08:23.803Z,21.45
2018-09-20T07:10:51.952Z,21.34
2018-09-20T07:13:21.286Z,21.57
2018-09-20T07:15:49.620Z,21.47
2018-09-20T07:18:17.886Z,21.91
2018-09-20T07:20:46.055Z,21.85
2018-09-20T07:23:14.151Z,21.92
2018-09-20T07:25:43.723Z,21.95
2018-09-20T07:28:13.147Z,22.16
2018-09-20T07:30:42.837Z,21.97
2018-09-20T07:33:11.218Z,22.10
2018-09-20T07:35:39.428Z,22.37
2018-09-20T07:38:07.624Z,22.07
2018-09-20T07:40:35.795Z,22.45
2018-09-20T07:43:03.953Z,22.53
2018-09-20T07:45:32.207Z,22.90
2018-09-20T07:48:00.685Z,22.80
2018-09-20T07:50:29.938Z,23.11
2018-09-20T07:52:58.480Z,22.65
2018-09-20T07:55:26.800Z,22.88
2018-09-20T07:57:54.971Z,22.88
2018-09-20T08:00:23.871Z,22.93
2018-09-20T08:02:54.021Z,23.02
2018-09-20T08:05:22.111Z,23.05
2018-09-20T08:07:51.544Z,23.07
2018-09-20T08:10:20.208Z,23.45
2018-09-20T08:12:48.497Z,23.47
2018-09-20T08:15:17.284Z,23.29
2018-09-20T08:17:45.802Z,23.26
2018-09-20T08:20:14.673Z,23.54
2018-09-20T08:22:43.412Z,23.43
2018-09-20T08:25:12.944Z,23.64
2018-09-20T08:27:41.151Z,23.66
2018-09-20T08:30:09.302Z,23.67
2018-09-20T08:32:39.027Z,23.81
2018-09-20T08:35:07.184Z,24.05
2018-09-20T08:37:35.565Z,24.03
2018-09-20T08:40:03.637Z,24.18
2018-09-20T08:42:33.165Z,24.12
2018-09-20T08:45:01.341Z,24.10
2018-09-20T08:47:30.462Z,24.22
2018-09-20T08:49:58.586Z,24.17
2018-09-20T08:52:26.766Z,24.34
2018-09-20T08:54:55.028Z,24.37
2018-09-20T08:57:23.942Z,24.55
2018-09-20T08:59:52.166Z,24.61
2018-09-20T09:02:20.307Z,24.69
2018-09-20T09:04:48.536Z,24.92
2018-09-20T09:07:17.612Z,24.86
2018-09-20T09:09:46.863Z,24.86
2018-09-20T09:12:15.088Z,25.09
2018-09-20T09:14:44.764Z,25.10
2018-09-20T09:17:13.676Z,24.94
2018-09-20T09:19:42.554Z,25.07
2018-09-20T09:22:12.387Z,25.30
2018-09-20T09:24:40.639Z,25.53
2018-09-20T09:27:10.343Z,25.65
2018-09-20T09:29:38.725Z,25.50
2018-09-20T09:32:07.000Z,25.61
2018-09-20T09:34:35.912Z,26.07
2018-09-20T09:37:04.109Z,25.63
2018-09-20T09:39:32.644Z,25.43
2018-09-20T09:42:01.125Z,25.55
2018-09-20T09:44:29.300Z,25.78
2018-09-20T09:46:57.627Z,26.10
2018-09-20T09:49:25.760Z,25.95
2018-09-20T09:51:54.477Z,25.94
2018-09-20T09:54:23.088Z,26.07
2018-09-20T09:56:51.216Z,26.46
2018-09-20T09:59:19.745Z,26.74
2018-09-20T10:01:48.080Z,26.27
2018-09-20T10:04:16.588Z,26.29
2018-09-20T10:06:44.736Z,26.27
2018-09-20T10:09:16.008Z,26.36
2018-09-20T10:11:44.288Z,26.82
2018-09-20T10:14:12.484Z,26.39
2018-09-20T10:16:40.737Z,27.06
2018-09-20T10:19:09.036Z,26.80
2018-09-20T10:21:37.356Z,26.72
2018-09-20T10:24:09.188Z,26.96
2018-09-20T10:26:37.269Z,26.91
2018-09-20T10:29:06.630Z,27.60
2018-09-20T10:31:34.867Z,27.70
2018-09-20T10:34:02.977Z,27.60
2018-09-20T10:36:31.008Z,27.47
2018-09-20T10:38:59.240Z,27.82
2018-09-20T10:41:27.505Z,27.84
2018-09-20T10:43:55.824Z,27.93
2018-09-20T10:46:24.174Z,28.12
2018-09-20T10:48:52.835Z,28.33
2018-09-20T10:51:21.495Z,28.16
2018-09-20T10:53:49.569Z,28.77
2018-09-20T10:56:17.646Z,28.49
2018-09-20T10:58:46.070Z,28.34
2018-09-20T11:01:15.467Z,28.96
2018-09-20T11:03:43.937Z,29.49
2018-09-20T11:06:12.097Z,29.49
2018-09-20T11:08:40.192Z,29.22
2018-09-20T11:11:08.399Z,29.43
2018-09-20T11:13:37.163Z,29.88
2018-09-20T11:16:07.220Z,30.16
2018-09-20T11:18:35.695Z,31.13
2018-09-20T11:21:04.544Z,30.62
2018-09-20T11:23:34.079Z,31.30
2018-09-20T11:26:02.605Z,31.10
2018-09-20T11:28:30.731Z,31.62
2018-09-20T11:30:59.168Z,31.96
2018-09-20T11:33:27.495Z,32.48
2018-09-20T11:35:55.639Z,32.58
2018-09-20T11:38:23.807Z,33.51
2018-09-20T11:40:52.260Z,33.79
2018-09-20T11:43:21.374Z,32.69
2018-09-20T11:45:49.787Z,34.08
2018-09-20T11:48:18.271Z,34.41
2018-09-20T11:50:46.447Z,35.09
2018-09-20T11:53:14.797Z,34.51
2018-09-20T11:55:45.129Z,34.48
2018-09-20T11:58:14.266Z,35.39
2018-09-20T12:00:42.834Z,35.96
2018-09-20T12:03:11.206Z,36.21
2018-09-20T12:05:39.990Z,36.03
2018-09-20T12:08:08.169Z,36.71
2018-09-20T12:10:36.337Z,38.10
2018-09-20T12:13:04.469Z,38.87
2018-09-20T12:15:32.733Z,37.23
2018-09-20T12:18:01.613Z,38.14
2018-09-20T12:20:30.989Z,38.66
2018-09-20T12:23:01.391Z,39.55
2018-09-20T12:25:29.487Z,39.80
2018-09-20T12:27:58.072Z,39.40
2018-09-20T12:30:26.754Z,40.33
2018-09-20T12:32:55.016Z,38.93
2018-09-20T12:35:23.196Z,39.34
2018-09-20T12:37:51.300Z,39.32
2018-09-20T12:40:19.447Z,42.42
2018-09-20T12:42:47.684Z,40.69
2018-09-20T12:45:16.162Z,40.50
2018-09-20T12:47:44.614Z,43.48
2018-09-20T12:50:12.939Z,43.89
2018-09-20T12:52:41.729Z,42.95
2018-09-20T12:55:09.861Z,42.28
2018-09-20T12:57:38.746Z,43.69
2018-09-20T13:00:08.876Z,46.10
2018-09-20T13:02:37.021Z,45.90
2018-09-20T13:05:05.579Z,41.62
2018-09-20T13:07:33.825Z,44.88
2018-09-20T13:10:02.576Z,44.53
2018-09-20T13:12:30.766Z,44.64
2018-09-20T13:14:58.980Z,42.77
2018-09-20T13:17:27.315Z,41.73
2018-09-20T13:19:55.495Z,44.46
2018-09-20T13:22:23.660Z,42.09
2018-09-20T13:24:52.109Z,47.24
2018-09-20T13:27:20.270Z,46.66
2018-09-20T13:29:48.564Z,45.33
2018-09-20T13:32:17.960Z,44.58
2018-09-20T13:34:46.499Z,48.50
2018-09-20T13:37:14.738Z,46.02
2018-09-20T13:39:43.084Z,46.75
2018-09-20T13:42:31.243Z,46.79
2018-09-20T13:45:17.338Z,48.71
2018-09-20T13:47:48.743Z,47.29
2018-09-20T13:50:17.215Z,50.21
2018-09-20T13:52:45.386Z,46.75
2018-09-20T13:55:13.591Z,45.85
2018-09-20T13:57:42.001Z,46.24
2018-09-20T14:00:10.587Z,46.05
2018-09-20T14:02:39.099Z,47.36
2018-09-20T14:05:07.347Z,47.41
2018-09-20T14:07:35.729Z,46.82
2018-09-20T14:10:03.851Z,47.78
2018-09-20T14:12:32.561Z,47.22
2018-09-20T14:15:05.593Z,47.38
2018-09-20T14:17:44.726Z,47.66
2018-09-20T14:20:14.769Z,49.36
2018-09-20T14:22:43.471Z,47.06
2018-09-20T14:25:11.987Z,45.92
2018-09-20T14:27:40.562Z,45.29
2018-09-20T14:30:08.948Z,47.43
2018-09-20T14:32:37.096Z,46.74
2018-09-20T14:35:05.461Z,47.41
2018-09-20T14:37:33.681Z,44.69
2018-09-20T14:40:02.214Z,47.86
2018-09-20T14:42:30.634Z,46.38
2018-09-20T14:44:58.909Z,48.51
2018-09-20T14:47:27.210Z,46.76
2018-09-20T14:49:55.502Z,46.66
2018-09-20T14:52:24.598Z,48.27
2018-09-20T14:54:52.877Z,46.41
2018-09-20T14:57:21.735Z,45.68
2018-09-20T14:59:49.952Z,46.31
2018-09-20T15:02:18.117Z,46.52
2018-09-20T15:04:46.296Z,45.79
2018-09-20T15:07:15.532Z,45.62
2018-09-20T15:09:43.767Z,45.68
2018-09-20T15:12:12.405Z,44.22
2018-09-20T15:14:47.663Z,44.96
2018-09-20T15:17:16.230Z,43.54
2018-09-20T15:19:45.259Z,44.35
2018-09-20T15:22:14.413Z,41.19
2018-09-20T15:24:43.523Z,43.77
2018-09-20T15:27:12.094Z,44.27
2018-09-20T15:29:40.422Z,43.11
2018-09-20T15:32:08.806Z,42.64
2018-09-20T15:34:37.592Z,42.59
2018-09-20T15:37:05.796Z,42.96
2018-09-20T15:39:34.080Z,43.70
2018-09-20T15:42:02.396Z,45.17
2018-09-20T15:44:30.563Z,43.96
2018-09-20T15:46:58.695Z,41.49
2018-09-20T15:49:27.204Z,44.20
2018-09-20T15:51:55.391Z,43.28
2018-09-20T15:54:25.259Z,44.46
2018-09-20T15:56:53.551Z,43.13
2018-09-20T15:59:21.762Z,42.27
2018-09-20T16:01:50.004Z,44.06
2018-09-20T16:04:18.372Z,44.18
2018-09-20T16:06:46.991Z,40.23
2018-09-20T16:09:15.417Z,42.62
2018-09-20T16:11:43.536Z,41.38
2018-09-20T16:14:11.784Z,40.77
2018-09-20T16:16:40.394Z,38.78
2018-09-20T16:19:08.972Z,39.84
2018-09-20T16:21:37.186Z,39.47
2018-09-20T16:24:06.246Z,38.72
2018-09-20T16:26:34.603Z,39.41
2018-09-20T16:30:10.922Z,38.89
2018-09-20T16:34:52.648Z,37.19
2018-09-20T16:37:28.914Z,36.79
2018-09-20T16:39:57.937Z,34.31
2018-09-20T16:42:26.955Z,33.60
2018-09-20T16:44:55.114Z,33.60
2018-09-20T16:47:24.107Z,33.57
2018-09-20T16:49:52.289Z,33.16
2018-09-20T16:52:20.533Z,33.07
2018-09-20T16:54:49.543Z,33.19
2018-09-20T16:57:19.111Z,32.75
2018-09-20T16:59:47.514Z,32.97
2018-09-20T17:02:15.902Z,32.25
2018-09-20T17:04:45.004Z,31.64
2018-09-20T17:07:14.700Z,32.16
2018-09-20T17:09:42.852Z,32.22
2018-09-20T17:12:12.075Z,32.12
2018-09-20T17:14:40.349Z,32.01
2018-09-20T17:17:08.804Z,32.02
2018-09-20T17:19:38.564Z,31.96
2018-09-20T17:22:08.062Z,32.09
2018-09-20T17:24:36.248Z,31.76
2018-09-20T17:27:05.966Z,31.10
2018-09-20T17:29:34.199Z,30.89
2018-09-20T17:32:02.558Z,31.00
2018-09-20T17:34:31.291Z,30.80
2018-09-20T17:37:00.500Z,30.51
2018-09-20T17:39:29.766Z,30.56
2018-09-20T17:41:58.650Z,30.73
2018-09-20T17:44:27.471Z,30.26
2018-09-20T17:46:57.499Z,30.29
2018-09-20T17:49:26.963Z,30.12
2018-09-20T17:51:55.297Z,30.62
2018-09-20T17:54:24.415Z,30.81
2018-09-20T17:56:53.150Z,30.76
2018-09-20T17:59:22.143Z,30.69
2018-09-20T18:01:50.568Z,30.64
2018-09-20T18:04:19.037Z,30.54
2018-09-20T18:06:47.313Z,30.25
2018-09-20T18:09:17.532Z,30.20
2018-09-20T18:11:46.051Z,30.05
2018-09-20T18:14:14.227Z,29.94
2018-09-20T18:16:42.640Z,29.88
2018-09-20T18:19:10.875Z,29.93
2018-09-20T18:21:39.103Z,29.96
2018-09-20T18:24:08.350Z,29.82
2018-09-20T18:26:36.632Z,29.77
2018-09-20T18:29:05.676Z,29.60
2018-09-20T18:31:38.297Z,29.47
2018-09-20T18:34:06.932Z,29.20
2018-09-20T18:36:36.107Z,29.16
2018-09-20T18:39:13.195Z,29.19
2018-09-20T18:41:42.788Z,29.00
2018-09-20T18:44:12.287Z,29.07
2018-09-20T18:46:40.484Z,29.11
2018-09-20T18:49:08.844Z,28.80
2018-09-20T18:51:37.407Z,28.68
2018-09-20T18:54:05.617Z,28.88
2018-09-20T18:56:33.769Z,28.53
2018-09-20T18:59:03.194Z,28.63
2018-09-20T19:01:31.332Z,28.28
2018-09-20T19:03:59.491Z,28.37
2018-09-20T19:06:27.871Z,28.46
2018-09-20T19:08:56.508Z,28.34
2018-09-20T19:11:25.038Z,28.37
2018-09-20T19:13:53.308Z,28.18
2018-09-20T19:16:21.540Z,28.24
2018-09-20T19:18:49.683Z,27.88
2018-09-20T19:21:18.423Z,27.94
2018-09-20T19:23:46.640Z,27.80
2018-09-20T19:26:14.982Z,27.86
2018-09-20T19:28:44.918Z,27.83
2018-09-20T19:31:13.307Z,27.86
2018-09-20T19:33:42.126Z,27.87
2018-09-20T19:36:12.167Z,27.73
2018-09-20T19:38:40.351Z,27.57
2018-09-20T19:41:08.523Z,27.84
2018-09-20T19:43:40.631Z,27.57
2018-09-20T19:46:08.806Z,27.50
2018-09-20T19:48:36.904Z,27.63
2018-09-20T19:51:06.391Z,27.20
2018-09-20T19:53:34.602Z,27.19
2018-09-20T19:56:02.961Z,27.41
2018-09-20T19:58:31.986Z,27.34
2018-09-20T20:01:00.763Z,27.37
2018-09-20T20:03:28.948Z,27.40
2018-09-20T20:05:57.215Z,27.25
2018-09-20T20:08:25.390Z,27.17
2018-09-20T20:10:53.927Z,27.05
2018-09-20T20:13:22.219Z,26.97
2018-09-20T20:15:50.955Z,27.07
2018-09-20T20:18:20.758Z,27.12
2018-09-20T20:20:49.111Z,27.07
2018-09-20T20:23:18.999Z,27.06
2018-09-20T20:25:47.215Z,26.92
2018-09-20T20:28:16.517Z,27.05
2018-09-20T20:30:45.763Z,26.91
2018-09-20T20:33:18.291Z,26.83
2018-09-20T20:35:46.867Z,26.79
2018-09-20T20:38:15.091Z,26.76
2018-09-20T20:40:44.556Z,26.78
2018-09-20T20:43:13.132Z,26.78
2018-09-20T20:45:43.636Z,26.77
2018-09-20T20:48:15.425Z,26.73
2018-09-20T20:50:44.054Z,26.63
2018-09-20T20:53:12.807Z,26.68
2018-09-20T20:55:40.967Z,26.58
2018-09-20T20:58:09.731Z,26.56
2018-09-20T21:00:37.996Z,26.54
2018-09-20T21:03:06.809Z,26.38
2018-09-20T21:05:34.951Z,26.52
2018-09-20T21:08:03.650Z,26.54
2018-09-20T21:10:31.861Z,26.58
2018-09-20T21:13:00.018Z,26.47
2018-09-20T21:15:28.876Z,26.36
2018-09-20T21:17:57.195Z,26.40
2018-09-20T21:20:25.391Z,26.08
2018-09-20T21:22:53.716Z,26.21
2018-09-20T21:25:22.061Z,26.19
2018-09-20T21:27:50.278Z,25.99
2018-09-20T21:30:18.471Z,26.21
2018-09-20T21:32:46.801Z,26.02
2018-09-20T21:35:14.974Z,25.98
2018-09-20T21:37:43.124Z,26.14
2018-09-20T21:40:11.247Z,26.05
2018-09-20T21:42:39.423Z,26.01
2018-09-20T21:45:08.611Z,26.04
2018-09-20T21:47:36.788Z,25.97
2018-09-20T21:50:04.986Z,25.88
2018-09-20T21:52:33.289Z,25.99
2018-09-20T21:55:01.611Z,25.95
2018-09-20T21:57:29.913Z,25.59
2018-09-20T21:59:58.185Z,25.56
2018-09-20T22:02:32.072Z,25.77
2018-09-20T22:05:00.227Z,25.74
2018-09-20T22:07:29.597Z,25.68
2018-09-20T22:09:57.787Z,25.51
2018-09-20T22:12:26.013Z,25.52
2018-09-20T22:14:54.739Z,25.55
2018-09-20T22:17:22.856Z,25.53
2018-09-20T22:19:51.047Z,25.45
2018-09-20T22:22:19.155Z,25.35
2018-09-20T22:24:47.505Z,25.51
2018-09-20T22:27:15.817Z,25.39
2018-09-20T22:29:44.110Z,25.36
2018-09-20T22:32:12.218Z,25.30
2018-09-20T22:34:42.471Z,25.19
2018-09-20T22:37:11.219Z,25.10
2018-09-20T22:39:39.363Z,25.05
2018-09-20T22:42:07.614Z,24.97
2018-09-20T22:44:35.784Z,25.06
2018-09-20T22:47:04.018Z,25.19
2018-09-20T22:49:32.946Z,25.04
2018-09-20T22:52:01.595Z,24.96
2018-09-20T22:54:30.077Z,24.98
2018-09-20T22:56:58.356Z,24.83
2018-09-20T22:59:27.202Z,24.80
2018-09-20T23:01:57.063Z,24.78
2018-09-20T23:04:26.638Z,24.85
2018-09-20T23:06:55.131Z,24.57
2018-09-20T23:09:24.336Z,24.38
2018-09-20T23:11:52.466Z,24.64
2018-09-20T23:14:20.584Z,24.55
2018-09-20T23:16:48.840Z,24.58
2018-09-20T23:19:20.964Z,24.53
2018-09-20T23:21:49.562Z,24.55
2018-09-20T23:24:17.769Z,24.48
2018-09-20T23:26:46.128Z,24.52
2018-09-20T23:29:16.040Z,24.45
2018-09-20T23:31:44.344Z,24.41
2018-09-20T23:34:12.440Z,24.29
2018-09-20T23:36:40.573Z,24.37
2018-09-20T23:39:11.098Z,24.42
2018-09-20T23:41:39.350Z,24.38
2018-09-20T23:44:08.000Z,24.27
2018-09-20T23:46:36.269Z,24.28
2018-09-20T23:49:04.541Z,24.23
2018-09-20T23:51:32.943Z,24.24
2018-09-20T23:54:01.591Z,24.42
2018-09-20T23:56:29.891Z,24.27
2018-09-20T23:58:58.298Z,24.33
